Time;durP1;ratioP1;P1;durP2;ratioP2;P2;SDS_P1;SDS_P2;PMS_P1;PMS_P2;Temp;Humidity;BMP_temperature;BMP_pressure;BME280_temperature;BME280_humidity;BME280_pressure;Samples;Min_cycle;Max_cycle;Signal;HPM_P1;HPM_P2
2023/08/14 00:01:07;;;;;;;12.43;6.07;;;20.90;99.90;;;;;;5051356;28;20044;-95
2023/08/14 00:03:33;;;;;;;10.25;5.85;;;20.90;99.90;;;;;;5053877;28;20021;-95
2023/08/14 00:05:59;;;;;;;11.93;5.30;;;20.80;99.90;;;;;;5035534;28;20065;-95
2023/08/14 00:08:25;;;;;;;10.25;6.63;;;20.90;99.90;;;;;;5070098;28;20017;-94
2023/08/14 00:10:50;;;;;;;8.77;5.80;;;20.90;99.90;;;;;;5033679;28;20077;-95
2023/08/14 00:13:20;;;;;;;14.25;7.43;;;20.90;99.90;;;;;;5051657;28;20417;-96
2023/08/14 00:15:47;;;;;;;10.52;6.45;;;20.90;99.90;;;;;;5053464;28;20033;-94
2023/08/14 00:18:12;;;;;;;11.27;6.88;;;20.80;99.90;;;;;;5051398;28;20033;-94
2023/08/14 00:20:38;;;;;;;12.40;7.18;;;20.90;99.90;;;;;;5052849;28;20469;-92
2023/08/14 00:23:03;;;;;;;12.45;7.88;;;20.90;99.90;;;;;;5031751;28;20025;-94
2023/08/14 00:25:29;;;;;;;26.48;8.52;;;20.80;99.90;;;;;;5052590;28;20053;-95
2023/08/14 00:27:55;;;;;;;21.60;8.80;;;20.90;99.90;;;;;;5052912;28;20025;-94
2023/08/14 00:30:21;;;;;;;14.40;7.95;;;20.90;99.90;;;;;;5031280;28;20009;-95
2023/08/14 00:32:46;;;;;;;18.58;10.02;;;20.80;99.90;;;;;;5032264;28;20104;-95
2023/08/14 00:35:12;;;;;;;16.90;8.85;;;20.80;99.90;;;;;;5027873;28;20481;-94
2023/08/14 00:37:46;;;;;;;15.50;8.32;;;20.80;99.90;;;;;;5033426;28;20119;-95
2023/08/14 00:40:13;;;;;;;15.40;8.32;;;20.80;99.90;;;;;;5052932;28;20347;-94
2023/08/14 00:42:40;;;;;;;17.63;8.80;;;20.80;99.90;;;;;;5029849;28;20021;-94
2023/08/14 00:45:07;;;;;;;12.27;7.95;;;20.80;99.90;;;;;;5036595;28;20489;-95
2023/08/14 00:47:37;;;;;;;14.80;9.23;;;20.80;99.90;;;;;;5035482;28;20021;-95
2023/08/14 00:50:07;;;;;;;15.23;8.45;;;20.80;99.90;;;;;;5030736;28;20021;-94
2023/08/14 00:52:35;;;;;;;18.15;8.75;;;20.80;99.90;;;;;;5065601;28;20028;-94
2023/08/14 00:55:08;;;;;;;15.75;8.70;;;20.80;99.90;;;;;;5036746;28;20295;-94
2023/08/14 00:57:35;;;;;;;15.35;8.60;;;20.80;99.90;;;;;;5029781;28;20103;-94
2023/08/14 01:00:05;;;;;;;19.08;9.85;;;20.80;99.90;;;;;;5052069;28;20022;-94
2023/08/14 01:02:30;;;;;;;17.95;9.23;;;20.80;99.90;;;;;;5031947;28;20035;-93
2023/08/14 01:04:56;;;;;;;17.95;9.77;;;20.80;99.90;;;;;;5029723;28;20056;-94
2023/08/14 01:07:24;;;;;;;20.40;10.77;;;20.80;99.90;;;;;;5030124;28;20018;-94
2023/08/14 01:09:50;;;;;;;17.02;9.73;;;20.80;99.90;;;;;;5052262;28;20413;-94
2023/08/14 01:12:38;;;;;;;20.45;8.85;;;20.80;99.90;;;;;;5051943;28;20017;-94
2023/08/14 01:15:16;;;;;;;11.45;7.13;;;20.80;99.90;;;;;;5036909;28;20027;-88
2023/08/14 01:17:50;;;;;;;14.38;8.20;;;20.80;99.90;;;;;;5033356;28;20023;-93
2023/08/14 01:20:18;;;;;;;13.45;7.28;;;20.80;99.90;;;;;;5031389;28;20021;-93
2023/08/14 01:23:05;;;;;;;10.50;6.80;;;20.80;99.90;;;;;;5052967;28;20471;-94
2023/08/14 01:25:37;;;;;;;13.93;7.18;;;20.80;99.90;;;;;;5064584;28;20025;-93
2023/08/14 01:28:04;;;;;;;11.45;6.75;;;20.80;99.90;;;;;;5034286;28;20025;-94
2023/08/14 01:30:30;;;;;;;10.77;7.53;;;20.80;99.90;;;;;;5051234;28;20020;-93
2023/08/14 01:32:56;;;;;;;14.23;6.90;;;20.80;99.90;;;;;;5034759;28;20090;-94
2023/08/14 01:35:25;;;;;;;12.95;6.85;;;20.80;99.90;;;;;;5052174;28;20114;-93
2023/08/14 01:38:21;;;;;;;12.27;6.83;;;20.80;99.90;;;;;;5052616;28;20432;-94
2023/08/14 01:41:08;;;;;;;9.85;6.22;;;20.80;99.90;;;;;;5067181;28;20032;-94
2023/08/14 01:43:40;;;;;;;11.80;5.70;;;20.80;99.90;;;;;;5054088;28;20047;-93
2023/08/14 01:46:08;;;;;;;11.65;6.40;;;20.80;99.90;;;;;;5035046;28;20056;-92
2023/08/14 01:48:36;;;;;;;13.57;6.13;;;20.80;99.90;;;;;;5026151;28;20021;-93
2023/08/14 01:51:02;;;;;;;11.40;6.07;;;20.80;99.90;;;;;;5055042;28;20477;-93
2023/08/14 01:53:28;;;;;;;8.80;5.90;;;20.80;99.90;;;;;;5026790;28;20028;-92
2023/08/14 01:55:54;;;;;;;10.82;6.53;;;20.80;99.90;;;;;;5028029;28;20021;-94
2023/08/14 01:58:21;;;;;;;8.93;6.15;;;20.80;99.90;;;;;;5049900;28;20489;-94
2023/08/14 02:00:46;;;;;;;8.20;6.05;;;20.80;99.90;;;;;;5051182;28;20028;-93
2023/08/14 02:03:12;;;;;;;13.50;6.50;;;20.80;99.90;;;;;;5023965;28;20489;-94
2023/08/14 02:05:38;;;;;;;10.82;6.82;;;20.80;99.90;;;;;;5050200;28;20028;-95
2023/08/14 02:08:04;;;;;;;13.50;6.82;;;20.80;99.90;;;;;;5031738;28;20027;-93
2023/08/14 02:10:29;;;;;;;12.43;6.43;;;20.70;99.90;;;;;;5030310;28;20013;-94
2023/08/14 02:12:55;;;;;;;11.82;7.10;;;20.80;99.90;;;;;;5051638;28;20473;-94
2023/08/14 02:15:22;;;;;;;10.77;6.28;;;20.80;99.90;;;;;;5050810;28;20017;-93
2023/08/14 02:17:48;;;;;;;12.32;6.50;;;20.70;99.90;;;;;;5033929;28;20041;-94
2023/08/14 02:20:14;;;;;;;9.98;6.30;;;20.70;99.90;;;;;;5051278;28;20040;-94
2023/08/14 02:22:39;;;;;;;10.60;6.20;;;20.80;99.90;;;;;;5051616;28;20025;-93
2023/08/14 02:25:05;;;;;;;10.02;6.22;;;20.80;99.90;;;;;;5032192;28;20045;-94
2023/08/14 02:27:31;;;;;;;8.65;5.80;;;20.80;99.90;;;;;;5049384;28;20068;-93
2023/08/14 02:29:57;;;;;;;13.98;5.93;;;20.70;99.90;;;;;;5029628;28;20021;-93
2023/08/14 02:32:22;;;;;;;8.38;5.25;;;20.70;99.90;;;;;;5046333;28;20032;-94
2023/08/14 02:34:50;;;;;;;8.20;5.13;;;20.70;99.90;;;;;;5051618;28;20470;-95
2023/08/14 02:37:17;;;;;;;11.98;6.22;;;20.70;99.90;;;;;;5023372;28;20071;-93
2023/08/14 02:39:44;;;;;;;9.27;5.88;;;20.70;99.90;;;;;;5048010;28;20047;-93
2023/08/14 02:42:10;;;;;;;11.65;5.80;;;20.70;99.90;;;;;;5051540;28;20048;-91
2023/08/14 02:44:36;;;;;;;11.45;5.10;;;20.70;99.90;;;;;;5031448;28;20029;-93
2023/08/14 02:47:02;;;;;;;11.95;4.65;;;20.70;99.90;;;;;;5051018;28;20024;-92
2023/08/14 02:49:28;;;;;;;9.80;4.88;;;20.70;99.90;;;;;;5050624;28;20028;-95
2023/08/14 02:51:54;;;;;;;9.52;4.00;;;20.80;99.90;;;;;;5031184;28;20021;-93
2023/08/14 02:54:20;;;;;;;8.68;4.05;;;20.70;99.90;;;;;;5033785;28;20025;-95
2023/08/14 02:56:46;;;;;;;6.75;3.80;;;20.80;99.90;;;;;;5051693;28;20032;-92
2023/08/14 02:59:11;;;;;;;6.72;3.97;;;20.70;99.90;;;;;;5051237;28;20075;-92
2023/08/14 03:01:37;;;;;;;6.03;3.65;;;20.70;99.90;;;;;;5050005;28;20047;-93
2023/08/14 03:04:03;;;;;;;3.85;3.33;;;20.70;99.90;;;;;;5028659;28;20024;-94
2023/08/14 03:06:31;;;;;;;5.57;3.30;;;20.70;99.90;;;;;;5050496;28;20055;-94
2023/08/14 03:08:57;;;;;;;5.45;2.97;;;20.70;99.90;;;;;;5047955;28;20021;-91
2023/08/14 03:11:23;;;;;;;4.53;2.75;;;20.70;99.90;;;;;;5037779;28;20029;-94
2023/08/14 03:13:49;;;;;;;4.55;3.17;;;20.70;99.90;;;;;;5051881;28;20017;-94
2023/08/14 03:16:14;;;;;;;5.93;3.15;;;20.70;99.90;;;;;;5050598;28;20029;-93
2023/08/14 03:18:40;;;;;;;5.63;3.58;;;20.70;99.90;;;;;;5049176;28;20029;-94
2023/08/14 03:21:06;;;;;;;4.45;3.08;;;20.70;99.90;;;;;;5032176;28;20477;-93
2023/08/14 03:23:32;;;;;;;8.23;3.03;;;20.70;99.90;;;;;;5026604;28;20066;-93
2023/08/14 03:25:57;;;;;;;6.03;2.72;;;20.70;99.90;;;;;;5032759;28;20091;-94
2023/08/14 03:28:23;;;;;;;4.95;3.15;;;20.70;99.90;;;;;;5031085;28;20023;-93
2023/08/14 03:30:50;;;;;;;4.95;3.00;;;20.70;99.90;;;;;;5064721;28;20021;-93
2023/08/14 03:33:15;;;;;;;4.22;2.75;;;20.70;99.90;;;;;;5050648;28;20043;-94
2023/08/14 03:35:41;;;;;;;3.58;2.30;;;20.70;99.90;;;;;;5051397;28;20021;-90
2023/08/14 03:38:07;;;;;;;4.20;2.80;;;20.70;99.90;;;;;;5031107;28;20035;-94
2023/08/14 03:40:32;;;;;;;8.25;3.28;;;20.70;99.90;;;;;;5049661;28;20028;-93
2023/08/14 03:42:58;;;;;;;2.90;2.55;;;20.70;99.90;;;;;;5051604;28;20029;-94
2023/08/14 03:45:23;;;;;;;10.82;3.40;;;20.70;99.90;;;;;;5032973;28;20358;-94
2023/08/14 03:47:49;;;;;;;8.38;3.78;;;20.70;99.90;;;;;;5060850;28;20028;-95
2023/08/14 03:50:15;;;;;;;8.38;3.30;;;20.70;99.90;;;;;;5050783;28;20044;-93
2023/08/14 03:52:41;;;;;;;4.70;3.03;;;20.70;99.90;;;;;;5049649;28;20401;-93
2023/08/14 03:55:07;;;;;;;9.82;3.13;;;20.70;99.90;;;;;;5052182;28;20026;-94
2023/08/14 03:57:33;;;;;;;10.95;3.63;;;20.70;99.90;;;;;;5049537;28;20014;-93
2023/08/14 03:59:58;;;;;;;6.03;3.47;;;20.70;99.90;;;;;;5052498;28;20048;-93
2023/08/14 04:02:24;;;;;;;6.78;3.45;;;20.70;99.90;;;;;;5052259;28;20119;-94
2023/08/14 04:04:50;;;;;;;9.70;3.72;;;20.70;99.90;;;;;;5032217;28;20032;-94
2023/08/14 04:07:15;;;;;;;4.80;3.40;;;20.70;99.90;;;;;;5050387;28;20029;-93
2023/08/14 04:09:41;;;;;;;5.47;3.25;;;20.70;99.90;;;;;;5048973;28;20026;-94
2023/08/14 04:12:07;;;;;;;7.93;3.03;;;20.70;99.90;;;;;;5033698;28;20018;-94
2023/08/14 04:14:33;;;;;;;3.38;2.70;;;20.70;99.90;;;;;;5051271;28;20017;-93
2023/08/14 04:16:59;;;;;;;5.60;3.28;;;20.70;99.90;;;;;;5027921;28;20116;-93
2023/08/14 04:19:24;;;;;;;11.98;3.80;;;20.70;99.90;;;;;;5054257;28;20463;-93
2023/08/14 04:21:50;;;;;;;5.72;2.78;;;20.70;99.90;;;;;;5043459;28;20355;-94
2023/08/14 04:24:16;;;;;;;4.68;3.00;;;20.70;99.90;;;;;;5056075;28;20469;-94
2023/08/14 04:26:42;;;;;;;4.20;2.75;;;20.70;99.90;;;;;;5037801;28;20103;-94
2023/08/14 04:29:09;;;;;;;5.80;3.40;;;20.70;99.90;;;;;;5037195;28;20028;-94
2023/08/14 04:31:37;;;;;;;6.07;3.65;;;20.70;99.90;;;;;;5054383;28;20013;-93
2023/08/14 04:34:03;;;;;;;4.20;3.20;;;20.70;99.90;;;;;;5053860;28;20040;-93
2023/08/14 04:36:33;;;;;;;5.22;3.20;;;20.60;99.90;;;;;;5034462;28;20025;-93
2023/08/14 04:38:59;;;;;;;6.05;3.25;;;20.70;99.90;;;;;;5051453;28;20030;-93
2023/08/14 04:41:25;;;;;;;6.88;3.80;;;20.70;99.90;;;;;;5049084;28;20052;-93
2023/08/14 04:43:51;;;;;;;4.60;3.67;;;20.60;99.90;;;;;;5051660;28;20021;-94
2023/08/14 04:46:34;;;;;;;6.20;3.88;;;20.70;99.90;;;;;;5031239;28;20053;-94
2023/08/14 04:49:01;;;;;;;6.65;3.70;;;20.70;99.90;;;;;;5053008;28;20029;-94
2023/08/14 04:51:31;;;;;;;4.57;3.30;;;20.70;99.90;;;;;;5035473;28;20025;-93
2023/08/14 04:53:57;;;;;;;;;;;21.00;99.90;;;;;;5067479;28;20461;-92
2023/08/14 04:56:23;;;;;;;7.75;4.38;;;20.60;99.90;;;;;;5054562;28;19995;-94
2023/08/14 04:58:49;;;;;;;11.68;4.82;;;20.60;99.90;;;;;;5053133;28;20056;-93
2023/08/14 05:01:15;;;;;;;6.30;4.88;;;20.60;99.90;;;;;;5048719;28;20029;-93
2023/08/14 05:03:40;;;;;;;7.55;4.88;;;20.60;99.90;;;;;;5053949;28;20028;-94
2023/08/14 05:06:07;;;;;;;8.40;5.95;;;20.60;99.90;;;;;;5053004;28;20021;-92
2023/08/14 05:08:32;;;;;;;10.90;6.65;;;20.70;99.90;;;;;;5034565;28;20025;-95
2023/08/14 05:10:58;;;;;;;10.88;6.82;;;20.70;99.90;;;;;;5048761;28;20470;-92
2023/08/14 05:13:24;;;;;;;9.95;6.07;;;20.60;99.90;;;;;;5031417;28;20031;-92
2023/08/14 05:15:51;;;;;;;11.20;6.55;;;20.70;99.90;;;;;;5051228;28;20382;-92
2023/08/14 05:18:17;;;;;;;10.32;6.30;;;20.70;99.90;;;;;;5053169;28;20032;-91
2023/08/14 05:20:44;;;;;;;13.07;5.90;;;20.60;99.90;;;;;;5034857;28;20389;-92
2023/08/14 05:23:10;;;;;;;17.92;6.13;;;20.60;99.90;;;;;;5051274;28;20052;-92
2023/08/14 05:25:36;;;;;;;12.07;5.95;;;20.60;99.90;;;;;;5053348;28;20013;-93
2023/08/14 05:28:03;;;;;;;7.88;5.38;;;20.60;99.90;;;;;;5051236;28;20022;-93
2023/08/14 05:30:28;;;;;;;9.02;5.60;;;20.60;99.90;;;;;;5028574;28;20017;-93
2023/08/14 05:32:54;;;;;;;8.75;5.20;;;20.60;99.90;;;;;;5051230;28;20048;-94
2023/08/14 05:35:23;;;;;;;8.25;5.60;;;20.60;99.90;;;;;;5051022;28;20569;-93
2023/08/14 05:37:52;;;;;;;10.15;6.28;;;20.60;99.90;;;;;;5050789;28;20017;-92
2023/08/14 05:40:19;;;;;;;7.10;5.30;;;20.60;99.90;;;;;;5032453;28;20025;-93
2023/08/14 05:42:48;;;;;;;8.43;4.28;;;20.60;99.90;;;;;;5029880;28;20028;-93
2023/08/14 05:45:14;;;;;;;6.22;4.57;;;20.60;99.90;;;;;;5045151;28;20029;-93
2023/08/14 05:47:39;;;;;;;7.03;4.35;;;20.60;99.90;;;;;;5033975;28;20025;-93
2023/08/14 05:50:06;;;;;;;11.35;5.30;;;20.60;99.90;;;;;;5050752;28;20025;-92
2023/08/14 05:52:31;;;;;;;6.13;4.80;;;20.60;99.90;;;;;;5029067;28;20027;-92
2023/08/14 05:54:57;;;;;;;6.82;4.65;;;20.60;99.90;;;;;;5050141;28;20021;-93
2023/08/14 05:57:22;;;;;;;6.00;4.22;;;20.60;99.90;;;;;;5049859;28;20473;-94
2023/08/14 05:59:48;;;;;;;5.95;4.07;;;20.70;99.90;;;;;;5024311;28;20179;-93
2023/08/14 06:02:13;;;;;;;9.23;5.20;;;20.60;99.90;;;;;;5033063;28;20040;-93
2023/08/14 06:04:40;;;;;;;10.82;5.60;;;20.70;99.90;;;;;;5050719;28;20036;-91
2023/08/14 06:07:06;;;;;;;7.28;5.72;;;20.60;99.90;;;;;;5032759;28;20477;-91
2023/08/14 06:09:32;;;;;;;12.10;7.32;;;20.60;99.90;;;;;;5046601;28;20036;-93
2023/08/14 06:11:57;;;;;;;10.32;7.93;;;20.60;99.90;;;;;;5049474;28;20029;-93
2023/08/14 06:14:23;;;;;;;10.60;7.40;;;20.60;99.90;;;;;;5051896;28;20044;-93
2023/08/14 06:16:48;;;;;;;14.18;8.00;;;20.60;99.90;;;;;;5050538;28;20539;-92
2023/08/14 06:19:14;;;;;;;13.48;6.70;;;20.60;99.90;;;;;;5050777;28;20032;-93
2023/08/14 06:21:39;;;;;;;9.80;6.80;;;20.70;99.90;;;;;;5050300;28;20029;-93
2023/08/14 06:24:11;;;;;;;19.73;8.82;;;20.60;99.90;;;;;;5051653;28;20493;-93
2023/08/14 06:26:37;;;;;;;16.23;8.65;;;20.70;99.90;;;;;;5029463;28;20032;-93
2023/08/14 06:29:03;;;;;;;16.20;10.43;;;20.70;99.90;;;;;;5031087;28;20033;-94
2023/08/14 06:31:28;;;;;;;14.10;8.27;;;20.70;99.90;;;;;;5034382;28;20025;-93
2023/08/14 06:33:54;;;;;;;12.95;8.55;;;20.70;99.90;;;;;;5034230;28;20037;-93
2023/08/14 06:36:19;;;;;;;14.90;8.40;;;20.70;99.90;;;;;;5032929;28;20520;-92
2023/08/14 06:38:45;;;;;;;10.75;7.15;;;20.70;99.90;;;;;;5032128;28;20079;-95
2023/08/14 06:41:10;;;;;;;10.57;7.55;;;20.70;99.90;;;;;;5048368;28;20025;-94
2023/08/14 06:43:36;;;;;;;16.48;6.22;;;20.70;99.90;;;;;;5049714;28;20052;-95
2023/08/14 06:46:02;;;;;;;20.52;7.32;;;20.70;99.90;;;;;;5034836;28;20025;-92
2023/08/14 06:48:28;;;;;;;14.73;8.23;;;20.70;99.90;;;;;;5051809;28;20024;-94
2023/08/14 06:50:56;;;;;;;14.93;8.07;;;20.70;99.90;;;;;;5048607;28;20112;-95
2023/08/14 06:53:22;;;;;;;19.65;8.90;;;20.70;99.90;;;;;;5051117;28;20020;-94
2023/08/14 06:55:47;;;;;;;21.77;11.10;;;20.70;99.90;;;;;;5033046;28;20269;-96
2023/08/14 06:58:13;;;;;;;17.85;9.98;;;20.70;99.90;;;;;;5032457;28;20025;-96
2023/08/14 07:00:38;;;;;;;21.67;11.95;;;20.70;99.90;;;;;;5029940;28;20033;-95
2023/08/14 07:03:05;;;;;;;29.33;14.43;;;20.70;99.90;;;;;;5034023;28;20420;-95
2023/08/14 07:05:31;;;;;;;16.88;9.65;;;20.70;99.90;;;;;;5035522;28;20055;-95
2023/08/14 07:07:56;;;;;;;29.17;13.40;;;20.70;99.90;;;;;;5033936;28;20048;-94
2023/08/14 07:10:22;;;;;;;24.60;12.77;;;20.70;99.90;;;;;;5035119;28;20029;-95
2023/08/14 07:12:48;;;;;;;18.27;10.52;;;20.70;99.90;;;;;;5030681;28;20078;-96
2023/08/14 07:15:13;;;;;;;8.02;5.30;;;20.70;99.90;;;;;;5034055;28;20040;-96
2023/08/14 07:17:39;;;;;;;16.27;8.00;;;20.70;99.90;;;;;;5028823;28;20063;-95
2023/08/14 07:20:05;;;;;;;17.90;10.48;;;20.70;99.90;;;;;;5050162;28;20061;-96
2023/08/14 07:22:31;;;;;;;21.48;11.75;;;20.70;99.90;;;;;;5030590;28;20067;-96
2023/08/14 07:24:57;;;;;;;22.10;10.88;;;20.70;99.90;;;;;;5033853;28;21208;-94
2023/08/14 07:27:23;;;;;;;14.98;9.90;;;20.70;99.90;;;;;;5033931;28;20029;-91
2023/08/14 07:29:48;;;;;;;17.27;9.43;;;20.70;99.90;;;;;;5028936;28;20021;-96
2023/08/14 07:32:14;;;;;;;17.30;7.93;;;20.70;99.90;;;;;;5048895;28;20028;-96
2023/08/14 07:34:40;;;;;;;16.83;8.10;;;20.70;99.90;;;;;;5049633;28;20485;-96
2023/08/14 07:37:05;;;;;;;15.85;8.02;;;20.80;99.90;;;;;;5035266;28;20033;-96
2023/08/14 07:39:31;;;;;;;10.90;5.30;;;20.70;99.90;;;;;;5035171;28;20473;-96
2023/08/14 07:41:56;;;;;;;8.02;5.25;;;20.80;99.90;;;;;;5053711;28;20032;-95
2023/08/14 07:44:22;;;;;;;6.80;4.90;;;20.80;99.90;;;;;;5048885;28;20025;-95
2023/08/14 07:46:48;;;;;;;6.43;4.25;;;20.80;99.90;;;;;;5030294;28;20024;-96
2023/08/14 07:49:13;;;;;;;7.93;4.55;;;20.80;99.90;;;;;;5052017;28;20020;-96
2023/08/14 07:51:39;;;;;;;8.90;4.90;;;20.80;99.90;;;;;;5051921;28;20025;-96
2023/08/14 07:54:32;;;;;;;10.98;5.10;;;20.80;99.90;;;;;;5059136;28;20036;-96
2023/08/14 08:00:19;;;;;;;7.40;4.82;;;20.80;99.90;;;;;;5058552;28;20602;-95
2023/08/14 08:02:54;;;;;;;8.68;4.78;;;20.80;99.90;;;;;;5053575;28;20033;-96
2023/08/14 08:05:20;;;;;;;15.45;6.28;;;20.80;99.90;;;;;;5052178;28;20043;-93
2023/08/14 08:07:46;;;;;;;13.40;6.10;;;20.80;99.90;;;;;;5055016;28;20028;-93
2023/08/14 08:10:12;;;;;;;10.82;5.65;;;20.80;99.90;;;;;;5035200;28;20025;-93
2023/08/14 08:12:37;;;;;;;9.13;5.38;;;20.80;99.90;;;;;;5054740;28;20017;-96
2023/08/14 08:15:03;;;;;;;10.10;5.40;;;20.80;99.90;;;;;;5051462;28;20099;-94
2023/08/14 08:17:29;;;;;;;12.02;6.88;;;20.80;99.90;;;;;;5032120;28;20025;-94
2023/08/14 08:19:54;;;;;;;8.52;5.28;;;20.80;99.90;;;;;;5035357;28;20455;-95
2023/08/14 08:22:20;;;;;;;11.60;6.65;;;20.80;99.90;;;;;;5054645;28;20079;-94
2023/08/14 08:24:47;;;;;;;9.20;5.50;;;20.80;99.90;;;;;;5033831;28;20056;-96
2023/08/14 08:27:12;;;;;;;9.77;5.18;;;20.80;99.90;;;;;;5037621;28;20075;-95
2023/08/14 08:29:38;;;;;;;11.23;5.32;;;20.80;99.90;;;;;;5031084;28;20026;-95
2023/08/14 08:32:05;;;;;;;5.60;4.00;;;20.80;99.90;;;;;;5034678;28;20033;-94
2023/08/14 08:34:31;;;;;;;8.45;3.85;;;20.80;99.90;;;;;;5052872;28;20445;-93
2023/08/14 08:36:57;;;;;;;8.38;3.70;;;20.90;99.90;;;;;;5036123;28;20029;-93
2023/08/14 08:39:22;;;;;;;5.28;3.90;;;20.80;99.90;;;;;;5055724;28;20032;-93
2023/08/14 08:41:49;;;;;;;8.93;3.40;;;20.80;99.90;;;;;;5031440;28;20032;-91
2023/08/14 08:44:20;;;;;;;5.25;3.65;;;20.80;99.90;;;;;;5053867;28;20028;-91
2023/08/14 08:46:51;;;;;;;6.47;3.50;;;20.90;99.90;;;;;;5053994;28;20013;-94
2023/08/14 08:49:17;;;;;;;7.53;4.03;;;20.90;99.90;;;;;;5066997;28;20028;-92
2023/08/14 08:51:44;;;;;;;8.27;3.50;;;20.80;99.90;;;;;;5033461;28;20351;-93
2023/08/14 08:54:12;;;;;;;4.65;3.75;;;20.90;99.90;;;;;;5027112;28;20026;-93
2023/08/14 08:56:38;;;;;;;6.20;4.07;;;20.90;99.90;;;;;;5054198;28;20073;-94
2023/08/14 08:59:04;;;;;;;6.22;3.90;;;20.90;99.90;;;;;;5025859;28;20076;-90
2023/08/14 09:01:30;;;;;;;12.25;4.90;;;20.90;99.90;;;;;;5050800;28;20009;-96
2023/08/14 09:03:56;;;;;;;8.68;4.20;;;20.90;99.90;;;;;;5033822;28;20040;-96
2023/08/14 09:06:21;;;;;;;4.93;3.50;;;20.90;99.90;;;;;;5033306;28;20017;-96
2023/08/14 09:08:47;;;;;;;9.85;4.60;;;20.90;99.90;;;;;;5054249;28;20025;-92
2023/08/14 09:11:13;;;;;;;9.95;3.97;;;20.90;99.90;;;;;;5068750;28;20013;-94
2023/08/14 09:13:38;;;;;;;4.88;3.70;;;20.90;99.90;;;;;;5033681;28;20076;-95
2023/08/14 09:16:04;;;;;;;9.07;3.35;;;20.90;99.90;;;;;;5054463;28;20021;-94
2023/08/14 09:18:31;;;;;;;4.90;3.58;;;20.90;99.90;;;;;;5053769;28;20033;-94
2023/08/14 09:21:01;;;;;;;3.42;3.00;;;20.90;99.90;;;;;;5052964;28;20504;-94
2023/08/14 09:23:30;;;;;;;8.02;3.25;;;20.80;99.90;;;;;;5068353;28;20029;-95
2023/08/14 09:25:56;;;;;;;4.70;3.35;;;20.90;99.90;;;;;;5028616;28;20018;-96
2023/08/14 09:28:22;;;;;;;4.75;3.15;;;20.90;99.90;;;;;;5052431;28;20028;-96
2023/08/14 09:30:47;;;;;;;7.20;3.50;;;20.90;99.90;;;;;;5028911;28;20120;-93
2023/08/14 09:33:13;;;;;;;6.78;3.75;;;20.90;99.90;;;;;;5035004;28;20021;-95
2023/08/14 09:35:39;;;;;;;7.40;3.42;;;20.90;99.90;;;;;;5039165;28;20036;-94
2023/08/14 09:38:05;;;;;;;5.60;3.10;;;20.90;99.90;;;;;;5048812;28;20032;-96
2023/08/14 09:40:32;;;;;;;4.72;2.97;;;20.90;99.90;;;;;;5052473;28;20021;-95
2023/08/14 09:42:57;;;;;;;4.95;3.25;;;20.90;99.90;;;;;;5050888;28;20082;-95
2023/08/14 09:45:28;;;;;;;7.53;3.03;;;20.90;99.90;;;;;;5033892;28;20464;-95
2023/08/14 09:48:00;;;;;;;7.10;3.13;;;21.00;99.90;;;;;;5028522;28;20029;-96
2023/08/14 09:50:29;;;;;;;6.28;3.78;;;20.90;99.90;;;;;;5031526;28;20017;-96
2023/08/14 09:53:00;;;;;;;7.10;3.10;;;21.00;99.90;;;;;;5031041;28;20056;-96
2023/08/14 09:55:27;;;;;;;5.03;2.80;;;21.00;99.90;;;;;;5028889;28;20362;-96
2023/08/14 09:57:54;;;;;;;13.90;3.22;;;21.00;99.90;;;;;;5032735;28;20051;-96
2023/08/14 10:00:20;;;;;;;7.63;3.25;;;21.00;99.90;;;;;;5048741;28;20021;-95
2023/08/14 10:02:47;;;;;;;4.35;2.80;;;21.00;99.90;;;;;;5027265;28;20493;-95
2023/08/14 10:05:18;;;;;;;3.70;2.40;;;21.00;99.90;;;;;;5051954;28;20036;-96
2023/08/14 10:07:43;;;;;;;5.43;3.10;;;21.00;99.90;;;;;;5024510;28;20055;-96
2023/08/14 10:10:11;;;;;;;3.92;2.25;;;21.00;99.90;;;;;;5052016;28;20032;-96
2023/08/14 10:13:07;;;;;;;3.47;2.45;;;21.00;99.90;;;;;;5069173;28;20023;-94
2023/08/14 10:15:37;;;;;;;8.95;2.58;;;21.00;99.90;;;;;;5046145;28;20025;-94
2023/08/14 10:18:23;;;;;;;5.07;2.72;;;21.00;99.90;;;;;;5034056;28;20179;-96
2023/08/14 10:20:50;;;;;;;2.70;2.38;;;21.00;99.90;;;;;;5022402;28;20128;-95
2023/08/14 10:23:17;;;;;;;3.38;2.53;;;21.00;99.90;;;;;;5051913;28;20025;-95
2023/08/14 10:25:50;;;;;;;4.38;2.80;;;21.00;99.90;;;;;;5030912;28;20045;-96
2023/08/14 10:28:17;;;;;;;11.32;3.15;;;21.00;99.90;;;;;;5030233;28;20021;-95
2023/08/14 10:30:44;;;;;;;4.05;2.58;;;21.10;99.90;;;;;;5023518;28;20347;-91
2023/08/14 10:33:11;;;;;;;3.72;2.53;;;21.10;99.90;;;;;;5030596;28;20034;-95
2023/08/14 10:36:03;;;;;;;8.85;3.28;;;21.10;99.90;;;;;;5030320;28;20055;-96
2023/08/14 10:38:41;;;;;;;7.38;2.70;;;21.10;99.90;;;;;;5026892;28;20033;-96
2023/08/14 10:41:08;;;;;;;3.67;2.42;;;21.10;99.90;;;;;;5050945;28;20040;-96
2023/08/14 10:43:34;;;;;;;4.75;2.33;;;21.10;99.90;;;;;;5022880;28;20106;-96
2023/08/14 10:46:10;;;;;;;3.15;2.63;;;21.10;99.90;;;;;;5050114;28;20037;-96
2023/08/14 10:48:37;;;;;;;7.10;3.17;;;21.10;99.90;;;;;;5033004;28;20024;-96
2023/08/14 10:51:06;;;;;;;7.30;3.17;;;21.10;99.90;;;;;;5030221;28;20117;-96
2023/08/14 10:53:31;;;;;;;3.47;2.95;;;21.10;99.90;;;;;;5052756;28;20029;-96
2023/08/14 10:55:58;;;;;;;2.85;2.50;;;21.10;99.90;;;;;;5026193;28;20079;-92
2023/08/14 10:58:35;;;;;;;7.20;2.63;;;21.10;99.90;;;;;;5042988;28;20021;-95
2023/08/14 11:01:08;;;;;;;4.13;2.80;;;21.10;99.90;;;;;;5052418;28;20095;-96
2023/08/14 11:03:54;;;;;;;4.88;2.90;;;21.10;99.90;;;;;;5065089;28;20030;-95
2023/08/14 11:06:27;;;;;;;4.70;2.70;;;21.20;99.90;;;;;;5050892;28;20018;-95
2023/08/14 11:09:04;;;;;;;4.15;2.13;;;21.20;99.90;;;;;;5029599;28;20171;-96
2023/08/14 11:11:30;;;;;;;3.40;2.38;;;21.20;99.90;;;;;;5042075;28;20508;-96
2023/08/14 11:13:56;;;;;;;3.35;2.17;;;21.20;99.90;;;;;;5055667;28;20029;-96
2023/08/14 11:16:22;;;;;;;3.50;2.60;;;21.20;99.90;;;;;;5038802;28;20120;-96
2023/08/14 11:18:49;;;;;;;8.88;3.03;;;21.20;99.90;;;;;;5025896;28;20084;-95
2023/08/14 11:21:14;;;;;;;3.67;2.50;;;21.20;99.90;;;;;;5038264;28;20033;-96
2023/08/14 11:23:40;;;;;;;3.55;2.72;;;21.20;99.90;;;;;;5042712;28;20025;-96
2023/08/14 11:26:06;;;;;;;4.40;2.75;;;21.20;99.90;;;;;;5057368;28;20113;-96
2023/08/14 11:28:32;;;;;;;2.70;2.17;;;21.20;99.90;;;;;;5045866;28;20103;-96
2023/08/14 11:30:57;;;;;;;4.78;2.97;;;21.20;99.90;;;;;;5061010;28;20033;-96
2023/08/14 11:33:23;;;;;;;3.92;2.97;;;21.20;99.90;;;;;;5064739;28;20040;-96
2023/08/14 11:35:53;;;;;;;5.22;3.00;;;21.20;99.90;;;;;;5043047;28;20029;-91
2023/08/14 11:38:19;;;;;;;5.57;3.03;;;21.30;99.90;;;;;;5055409;28;20029;-96
2023/08/14 11:40:45;;;;;;;5.60;2.47;;;;;;;;;;5044179;28;20051;-95
2023/08/14 11:43:12;;;;;;;6.40;2.80;;;;;;;;;;5054919;28;20495;-93
2023/08/14 11:45:38;;;;;;;4.15;2.63;;;;;;;;;;5060746;28;20021;-96
2023/08/14 11:48:05;;;;;;;4.80;2.63;;;;;;;;;;5056812;28;20028;-96
2023/08/14 11:50:31;;;;;;;4.43;2.35;;;;;;;;;;5054164;28;20051;-96
2023/08/14 11:52:58;;;;;;;3.38;2.35;;;;;;;;;;5062727;28;20056;-96
2023/08/14 11:55:29;;;;;;;4.95;2.78;;;;;;;;;;5064015;28;20036;-96
2023/08/14 11:57:56;;;;;;;5.10;2.95;;;;;;;;;;5066756;28;20025;-96
2023/08/14 12:00:22;;;;;;;4.88;2.72;;;;;;;;;;5063875;28;20029;-96
2023/08/14 12:02:51;;;;;;;4.03;2.97;;;;;;;;;;5060994;28;20012;-96
2023/08/14 12:05:20;;;;;;;4.10;2.50;;;;;;;;;;5060153;28;20025;-96
2023/08/14 12:07:46;;;;;;;3.50;2.92;;;;;;;;;;5040450;28;20025;-96
2023/08/14 12:10:15;;;;;;;5.07;2.97;;;;;;;;;;5054379;28;20024;-96
2023/08/14 12:12:41;;;;;;;4.45;3.22;;;;;;;;;;5038311;28;20017;-96
2023/08/14 12:15:07;;;;;;;6.55;3.03;;;;;;;;;;5060593;28;20040;-96
2023/08/14 12:17:35;;;;;;;7.18;3.13;;;;;;;;;;5057905;28;20029;-96
2023/08/14 12:20:05;;;;;;;6.07;3.33;;;;;;;;;;5059588;28;20028;-96
2023/08/14 12:22:31;;;;;;;8.45;2.83;;;;;;;;;;5054741;28;20021;-96
2023/08/14 12:24:58;;;;;;;8.95;3.03;;;;;;;;;;5064956;28;20440;-96
2023/08/14 12:27:27;;;;;;;6.25;2.92;;;;;;;;;;5057267;28;20077;-96
2023/08/14 12:29:57;;;;;;;5.22;2.83;;;;;;;;;;5063074;28;20021;-96
2023/08/14 12:32:25;;;;;;;8.43;2.92;;;;;;;;;;5059301;28;20465;-96
2023/08/14 12:34:51;;;;;;;3.78;2.75;;;;;;;;;;5060135;28;20013;-96
2023/08/14 12:37:17;;;;;;;4.30;2.85;;;;;;;;;;5061705;28;20029;-96
2023/08/14 12:39:44;;;;;;;4.35;2.78;;;;;;;;;;5043781;28;20114;-96
2023/08/14 12:42:11;;;;;;;4.47;2.83;;;;;;;;;;5061179;28;20025;-96
2023/08/14 12:44:37;;;;;;;3.10;2.80;;;;;;;;;;5048622;28;20025;-96
2023/08/14 12:47:04;;;;;;;3.80;2.92;;;;;;;;;;5063729;28;20021;-96
2023/08/14 12:49:38;;;;;;;3.33;2.72;;;;;;;;;;5067359;28;20024;-96
2023/08/14 12:52:05;;;;;;;9.20;3.30;;;;;;;;;;5065911;28;20047;-96
2023/08/14 12:54:31;;;;;;;6.10;2.88;;;;;;;;;;5062809;28;20029;-96
2023/08/14 12:57:03;;;;;;;5.60;3.17;;;;;;;;;;5064574;28;20029;-96